Meridian, MS (39305)

12:42 PM CDT on September 02, 2014 (GMT -0500)
3.2 NW Meridian (Pine Springs Rd.) | Change Station
CLOSE
Current Station
Personal Weather Station
Location: Meridian, MS
Elevation: 328 ft
Nearby Weather Stations

Elev 328 ft 32.42 °N, 88.75 °W | Updated 13 seconds ago

Scattered Clouds
Scattered Clouds
87.7 °F
Feels Like 100 °F
N
1.0
Wind Variable Wind from SSW
Gusts 6.0 mph

Today
High -- | Low -- °F
--% Chance of Precip.
Yesterday
High -- | Low -- °F
Precip. -- in
6:30 AM 7:17 PM
First Quarter, 53% visible
Pressure 30.07 in
Visibility 10.0 miles
Clouds Few 2500 ft
Scattered Clouds 3400 ft
Heat Index 100 °F
Dew Point 77 °F
Humidity 71%
Rainfall 0.00 in
Snow Depth Not available.
UV 8 out of 12
Pollen 9.20 out of 12
Air Quality Not available.
Flu Activity Not available.
METAR KMEI 021658Z VRB04KT 10SM FEW025 SCT034 29/23 A3008 RMK AO2 SLP182 T02940228

More Conditions Fewer Conditions

Pressure 30.07 in
Visibility 10.0 miles
Clouds Few 2500 ft
Scattered Clouds 3400 ft
Heat Index 100 °F
Dew Point 77 °F
Humidity 71%
Rainfall 0.00 in
Snow Depth Not available.
UV 8 out of 12
Pollen 9.20 out of 12
Air Quality Not available.
Flu Activity Not available.
METAR KMEI 021658Z VRB04KT 10SM FEW025 SCT034 29/23 A3008 RMK AO2 SLP182 T02940228

More Conditions Fewer Conditions

10-Day Weather Forecast

Almanac

Astronomy

Sep. 02, 2014 Rise Set
Actual Time 6:30 AM CDT 7:17 PM CDT
Civil Twilight 6:05 AM CDT 7:42 PM CDT
Nautical Twilight 5:35 AM CDT 8:12 PM CDT
Astronomical Twilight 5:05 AM CDT 8:42 PM CDT
Moon 1:50 PM CDT No Moon Set
Length of Visible Light 13h 37m
Length of Day
12h 47m
Tomorrow will be 1m 55s shorter.
First Quarter, 53% of the Moon is Illuminated
Today
First Quarter
Sep 8
Full
Sep 15
Last Quarter
Sep 24
New
Oct 1
First Quarter

Today's Extremes

State Highs State Lows

Community

WunderPhotos

Upload Photos

1,749,724 photos uploaded!

WunderBlogs® & News

Nearby

Snow Depth

Station Depth Elevation
No new snow has been reported.

Earthquake Activity

City Distance Mag. Time & Date
No recent earthquake activity has been reported nearby.
Minimum magnitude displayed is 2.5.

Coastal Water Temperatures

Place Temperature
No Stations Reporting

Nearby Weather Stations